sensor_id;sensor_type;location;lat;lon;timestamp;pressure;altitude;pressure_sealevel;temperature;humidity
12775;BME280;6451;42.630;23.382;2023-11-22T00:00:16;93678.75;;;8.28;100.00
12775;BME280;6451;42.630;23.382;2023-11-22T00:02:48;93660.72;;;8.16;100.00
12775;BME280;6451;42.630;23.382;2023-11-22T00:05:15;93658.81;;;8.17;100.00
12775;BME280;6451;42.630;23.382;2023-11-22T00:07:42;93638.47;;;7.91;100.00
12775;BME280;6451;42.630;23.382;2023-11-22T00:10:10;93676.53;;;8.30;100.00
12775;BME280;6451;42.630;23.382;2023-11-22T00:12:37;93663.28;;;8.41;100.00
12775;BME280;6451;42.630;23.382;2023-11-22T00:15:05;93661.31;;;8.38;100.00
12775;BME280;6451;42.630;23.382;2023-11-22T00:17:36;93627.22;;;8.05;100.00
12775;BME280;6451;42.630;23.382;2023-11-22T00:20:04;93664.44;;;8.40;100.00
12775;BME280;6451;42.630;23.382;2023-11-22T00:22:33;93565.00;;;7.70;100.00
12775;BME280;6451;42.630;23.382;2023-11-22T00:25:00;93653.97;;;7.94;100.00
12775;BME280;6451;42.630;23.382;2023-11-22T00:27:29;93653.13;;;8.06;100.00
12775;BME280;6451;42.630;23.382;2023-11-22T00:29:59;93655.06;;;8.05;100.00
12775;BME280;6451;42.630;23.382;2023-11-22T00:32:26;93645.28;;;8.01;100.00
12775;BME280;6451;42.630;23.382;2023-11-22T00:34:54;93587.03;;;7.72;100.00
12775;BME280;6451;42.630;23.382;2023-11-22T00:37:21;93650.44;;;8.06;100.00
12775;BME280;6451;42.630;23.382;2023-11-22T00:39:48;93651.81;;;8.00;100.00
12775;BME280;6451;42.630;23.382;2023-11-22T00:42:15;93644.88;;;8.15;100.00
12775;BME280;6451;42.630;23.382;2023-11-22T00:44:46;93625.22;;;8.02;100.00
12775;BME280;6451;42.630;23.382;2023-11-22T00:47:19;93625.84;;;7.95;100.00
12775;BME280;6451;42.630;23.382;2023-11-22T00:49:49;93650.34;;;8.18;100.00
12775;BME280;6451;42.630;23.382;2023-11-22T00:52:16;93610.41;;;7.96;100.00
12775;BME280;6451;42.630;23.382;2023-11-22T00:54:44;93584.63;;;7.83;100.00
12775;BME280;6451;42.630;23.382;2023-11-22T00:57:11;93639.91;;;8.32;100.00
12775;BME280;6451;42.630;23.382;2023-11-22T00:59:38;93649.66;;;8.21;100.00
12775;BME280;6451;42.630;23.382;2023-11-22T01:02:07;93618.63;;;7.99;100.00
12775;BME280;6451;42.630;23.382;2023-11-22T01:04:34;93582.16;;;7.62;100.00
12775;BME280;6451;42.630;23.382;2023-11-22T01:07:02;93621.09;;;7.76;100.00
12775;BME280;6451;42.630;23.382;2023-11-22T01:09:30;93647.09;;;7.97;100.00
12775;BME280;6451;42.630;23.382;2023-11-22T01:11:58;93656.69;;;8.10;100.00
12775;BME280;6451;42.630;23.382;2023-11-22T01:14:27;93603.34;;;7.75;100.00
12775;BME280;6451;42.630;23.382;2023-11-22T01:16:55;93622.97;;;8.04;100.00
12775;BME280;6451;42.630;23.382;2023-11-22T01:19:23;93627.41;;;8.12;100.00
12775;BME280;6451;42.630;23.382;2023-11-22T01:21:51;93626.03;;;8.18;100.00
12775;BME280;6451;42.630;23.382;2023-11-22T01:24:18;93618.81;;;8.22;100.00
12775;BME280;6451;42.630;23.382;2023-11-22T01:26:45;93619.50;;;8.35;100.00
12775;BME280;6451;42.630;23.382;2023-11-22T01:29:12;93620.16;;;8.44;100.00
12775;BME280;6451;42.630;23.382;2023-11-22T01:31:39;93582.25;;;8.13;100.00
12775;BME280;6451;42.630;23.382;2023-11-22T01:34:07;93623.97;;;8.43;100.00
12775;BME280;6451;42.630;23.382;2023-11-22T01:36:37;93618.22;;;8.45;100.00
12775;BME280;6451;42.630;23.382;2023-11-22T01:39:05;93567.13;;;8.08;100.00
12775;BME280;6451;42.630;23.382;2023-11-22T01:41:33;93613.50;;;8.42;100.00
12775;BME280;6451;42.630;23.382;2023-11-22T01:44:00;93606.00;;;8.35;100.00
12775;BME280;6451;42.630;23.382;2023-11-22T01:46:29;93589.47;;;8.37;100.00
12775;BME280;6451;42.630;23.382;2023-11-22T01:48:57;93605.19;;;8.34;100.00
12775;BME280;6451;42.630;23.382;2023-11-22T01:51:25;93588.69;;;8.36;100.00
12775;BME280;6451;42.630;23.382;2023-11-22T01:53:56;93603.81;;;8.41;100.00
12775;BME280;6451;42.630;23.382;2023-11-22T01:56:26;93600.44;;;8.44;100.00
12775;BME280;6451;42.630;23.382;2023-11-22T01:58:54;93598.66;;;8.35;100.00
12775;BME280;6451;42.630;23.382;2023-11-22T02:01:22;93592.03;;;8.49;100.00
12775;BME280;6451;42.630;23.382;2023-11-22T02:03:49;93562.75;;;8.19;100.00
12775;BME280;6451;42.630;23.382;2023-11-22T02:06:18;93596.50;;;8.41;100.00
12775;BME280;6451;42.630;23.382;2023-11-22T02:08:45;93576.25;;;8.19;100.00
12775;BME280;6451;42.630;23.382;2023-11-22T02:11:18;93561.78;;;8.27;100.00
12775;BME280;6451;42.630;23.382;2023-11-22T02:13:47;93600.25;;;8.37;100.00
12775;BME280;6451;42.630;23.382;2023-11-22T02:16:15;93564.94;;;8.14;100.00
12775;BME280;6451;42.630;23.382;2023-11-22T02:18:43;93604.34;;;8.30;100.00
12775;BME280;6451;42.630;23.382;2023-11-22T02:21:10;93602.13;;;8.20;100.00
12775;BME280;6451;42.630;23.382;2023-11-22T02:23:39;93592.47;;;8.35;100.00
12775;BME280;6451;42.630;23.382;2023-11-22T02:26:06;93536.50;;;7.88;100.00
12775;BME280;6451;42.630;23.382;2023-11-22T02:28:33;93571.44;;;8.13;100.00
12775;BME280;6451;42.630;23.382;2023-11-22T02:31:00;93539.66;;;7.90;100.00
12775;BME280;6451;42.630;23.382;2023-11-22T02:33:27;93593.16;;;8.16;100.00
12775;BME280;6451;42.630;23.382;2023-11-22T02:35:54;93588.63;;;8.20;100.00
12775;BME280;6451;42.630;23.382;2023-11-22T02:38:22;93589.69;;;8.16;100.00
12775;BME280;6451;42.630;23.382;2023-11-22T02:40:53;93587.94;;;8.23;100.00
12775;BME280;6451;42.630;23.382;2023-11-22T02:43:22;93584.16;;;7.80;100.00
12775;BME280;6451;42.630;23.382;2023-11-22T02:45:49;93590.47;;;8.00;100.00
12775;BME280;6451;42.630;23.382;2023-11-22T02:48:16;93588.00;;;7.95;100.00
12775;BME280;6451;42.630;23.382;2023-11-22T02:50:44;93598.56;;;8.00;100.00
12775;BME280;6451;42.630;23.382;2023-11-22T02:53:12;93597.50;;;8.05;100.00
12775;BME280;6451;42.630;23.382;2023-11-22T02:55:39;93591.59;;;7.99;100.00
12775;BME280;6451;42.630;23.382;2023-11-22T02:58:07;93583.75;;;7.94;100.00
12775;BME280;6451;42.630;23.382;2023-11-22T03:00:34;93598.31;;;8.05;100.00
12775;BME280;6451;42.630;23.382;2023-11-22T03:03:02;93587.06;;;8.03;100.00
12775;BME280;6451;42.630;23.382;2023-11-22T03:05:34;93516.47;;;7.58;100.00
12775;BME280;6451;42.630;23.382;2023-11-22T03:08:02;93604.94;;;8.08;100.00
12775;BME280;6451;42.630;23.382;2023-11-22T03:10:29;93607.38;;;8.13;100.00
12775;BME280;6451;42.630;23.382;2023-11-22T03:12:57;93606.44;;;8.05;100.00
12775;BME280;6451;42.630;23.382;2023-11-22T03:15:25;93615.75;;;8.08;100.00
12775;BME280;6451;42.630;23.382;2023-11-22T03:17:52;93605.13;;;8.15;100.00
12775;BME280;6451;42.630;23.382;2023-11-22T03:20:20;93602.25;;;8.08;100.00
12775;BME280;6451;42.630;23.382;2023-11-22T03:22:48;93593.97;;;8.17;100.00
12775;BME280;6451;42.630;23.382;2023-11-22T03:25:17;93614.34;;;8.30;100.00
12775;BME280;6451;42.630;23.382;2023-11-22T03:27:44;93613.22;;;8.15;100.00
12775;BME280;6451;42.630;23.382;2023-11-22T03:30:12;93614.25;;;8.26;100.00
12775;BME280;6451;42.630;23.382;2023-11-22T03:32:44;93610.59;;;8.34;100.00
12775;BME280;6451;42.630;23.382;2023-11-22T03:35:11;93523.19;;;7.79;100.00
12775;BME280;6451;42.630;23.382;2023-11-22T03:37:38;93585.91;;;8.20;100.00
12775;BME280;6451;42.630;23.382;2023-11-22T03:40:12;93600.84;;;8.30;100.00
12775;BME280;6451;42.630;23.382;2023-11-22T03:42:41;93606.09;;;8.39;100.00
12775;BME280;6451;42.630;23.382;2023-11-22T03:45:09;93600.38;;;8.28;100.00
12775;BME280;6451;42.630;23.382;2023-11-22T03:47:39;93553.44;;;8.01;100.00
12775;BME280;6451;42.630;23.382;2023-11-22T03:50:07;93584.28;;;8.16;100.00
12775;BME280;6451;42.630;23.382;2023-11-22T03:52:35;93599.59;;;8.27;100.00
12775;BME280;6451;42.630;23.382;2023-11-22T03:55:03;93564.94;;;8.14;100.00
12775;BME280;6451;42.630;23.382;2023-11-22T03:57:31;93577.19;;;8.27;100.00
12775;BME280;6451;42.630;23.382;2023-11-22T03:59:58;93552.09;;;8.11;100.00
12775;BME280;6451;42.630;23.382;2023-11-22T04:02:26;93564.41;;;8.08;100.00
12775;BME280;6451;42.630;23.382;2023-11-22T04:04:56;93568.50;;;8.18;100.00
12775;BME280;6451;42.630;23.382;2023-11-22T04:07:25;93559.97;;;8.16;100.00
12775;BME280;6451;42.630;23.382;2023-11-22T04:09:52;93593.69;;;8.53;100.00
12775;BME280;6451;42.630;23.382;2023-11-22T04:12:19;93613.66;;;8.49;100.00
12775;BME280;6451;42.630;23.382;2023-11-22T04:14:49;93616.00;;;8.50;100.00
12775;BME280;6451;42.630;23.382;2023-11-22T04:17:17;93615.69;;;8.52;100.00
12775;BME280;6451;42.630;23.382;2023-11-22T04:19:46;93466.91;;;7.50;100.00
12775;BME280;6451;42.630;23.382;2023-11-22T04:22:13;93521.72;;;7.82;100.00
12775;BME280;6451;42.630;23.382;2023-11-22T04:24:42;93603.09;;;8.28;100.00
12775;BME280;6451;42.630;23.382;2023-11-22T04:27:09;93640.69;;;8.33;100.00
12775;BME280;6451;42.630;23.382;2023-11-22T04:29:39;93628.31;;;8.32;100.00
12775;BME280;6451;42.630;23.382;2023-11-22T04:32:07;93650.28;;;8.30;100.00
12775;BME280;6451;42.630;23.382;2023-11-22T04:34:34;93582.88;;;7.90;100.00
12775;BME280;6451;42.630;23.382;2023-11-22T04:37:00;93632.50;;;8.29;100.00
12775;BME280;6451;42.630;23.382;2023-11-22T04:39:27;93636.63;;;8.39;100.00
12775;BME280;6451;42.630;23.382;2023-11-22T04:41:56;93645.56;;;8.27;100.00
12775;BME280;6451;42.630;23.382;2023-11-22T04:44:23;93607.47;;;8.01;100.00
12775;BME280;6451;42.630;23.382;2023-11-22T04:46:49;93600.31;;;8.08;100.00
12775;BME280;6451;42.630;23.382;2023-11-22T04:49:19;93639.69;;;8.38;100.00
12775;BME280;6451;42.630;23.382;2023-11-22T04:51:49;93674.63;;;8.46;100.00
12775;BME280;6451;42.630;23.382;2023-11-22T04:54:20;93667.22;;;8.43;100.00
12775;BME280;6451;42.630;23.382;2023-11-22T04:56:48;93676.47;;;8.42;100.00
12775;BME280;6451;42.630;23.382;2023-11-22T04:59:19;93599.00;;;8.02;100.00
12775;BME280;6451;42.630;23.382;2023-11-22T05:01:47;93640.34;;;8.50;100.00
12775;BME280;6451;42.630;23.382;2023-11-22T05:04:14;93704.56;;;8.69;100.00
12775;BME280;6451;42.630;23.382;2023-11-22T05:06:41;93701.25;;;8.60;100.00
12775;BME280;6451;42.630;23.382;2023-11-22T05:09:09;93703.66;;;8.65;100.00
12775;BME280;6451;42.630;23.382;2023-11-22T05:11:36;93702.56;;;8.82;100.00
12775;BME280;6451;42.630;23.382;2023-11-22T05:14:04;93708.75;;;8.67;100.00
12775;BME280;6451;42.630;23.382;2023-11-22T05:16:37;93718.44;;;8.83;100.00
12775;BME280;6451;42.630;23.382;2023-11-22T05:19:04;93646.78;;;8.14;100.00
12775;BME280;6451;42.630;23.382;2023-11-22T05:21:31;93715.03;;;8.71;100.00
12775;BME280;6451;42.630;23.382;2023-11-22T05:24:00;93674.09;;;8.41;100.00
12775;BME280;6451;42.630;23.382;2023-11-22T05:26:27;93714.06;;;8.47;100.00
12775;BME280;6451;42.630;23.382;2023-11-22T05:28:55;93718.06;;;8.53;100.00
12775;BME280;6451;42.630;23.382;2023-11-22T05:31:22;93697.56;;;8.37;100.00
12775;BME280;6451;42.630;23.382;2023-11-22T05:33:51;93673.50;;;8.03;100.00
12775;BME280;6451;42.630;23.382;2023-11-22T05:36:18;93690.78;;;7.99;100.00
12775;BME280;6451;42.630;23.382;2023-11-22T05:38:47;93652.28;;;7.74;100.00
12775;BME280;6451;42.630;23.382;2023-11-22T05:41:15;93706.47;;;8.09;100.00
12775;BME280;6451;42.630;23.382;2023-11-22T05:43:42;93740.41;;;8.22;100.00
12775;BME280;6451;42.630;23.382;2023-11-22T05:46:09;93735.63;;;8.31;100.00
12775;BME280;6451;42.630;23.382;2023-11-22T05:48:38;93751.97;;;8.35;100.00
12775;BME280;6451;42.630;23.382;2023-11-22T05:51:10;93753.06;;;8.34;100.00
12775;BME280;6451;42.630;23.382;2023-11-22T05:53:37;93653.88;;;7.75;100.00
12775;BME280;6451;42.630;23.382;2023-11-22T05:56:11;93761.22;;;8.50;100.00
12775;BME280;6451;42.630;23.382;2023-11-22T05:58:38;93735.28;;;8.33;100.00
12775;BME280;6451;42.630;23.382;2023-11-22T06:01:08;93765.19;;;8.68;100.00
12775;BME280;6451;42.630;23.382;2023-11-22T06:03:37;93730.66;;;8.33;100.00
12775;BME280;6451;42.630;23.382;2023-11-22T06:06:10;93779.75;;;8.63;100.00
12775;BME280;6451;42.630;23.382;2023-11-22T06:08:39;93776.44;;;8.54;100.00
12775;BME280;6451;42.630;23.382;2023-11-22T06:11:07;93764.81;;;8.38;100.00
12775;BME280;6451;42.630;23.382;2023-11-22T06:13:33;93781.22;;;8.61;100.00
12775;BME280;6451;42.630;23.382;2023-11-22T06:16:02;93783.75;;;8.54;100.00
12775;BME280;6451;42.630;23.382;2023-11-22T06:18:28;93723.16;;;8.27;100.00
12775;BME280;6451;42.630;23.382;2023-11-22T06:20:58;93757.50;;;8.54;100.00
12775;BME280;6451;42.630;23.382;2023-11-22T06:23:30;93791.13;;;8.85;100.00
12775;BME280;6451;42.630;23.382;2023-11-22T06:25:57;93793.56;;;8.74;100.00
12775;BME280;6451;42.630;23.382;2023-11-22T06:28:24;93786.66;;;8.93;100.00
12775;BME280;6451;42.630;23.382;2023-11-22T06:30:51;93811.25;;;8.87;100.00
12775;BME280;6451;42.630;23.382;2023-11-22T06:33:18;93802.13;;;8.92;100.00
12775;BME280;6451;42.630;23.382;2023-11-22T06:35:45;93810.03;;;8.69;100.00
12775;BME280;6451;42.630;23.382;2023-11-22T06:38:12;93806.91;;;8.83;100.00
12775;BME280;6451;42.630;23.382;2023-11-22T06:40:41;93810.41;;;8.99;100.00
12775;BME280;6451;42.630;23.382;2023-11-22T06:43:07;93805.06;;;8.87;100.00
12775;BME280;6451;42.630;23.382;2023-11-22T06:45:35;93812.50;;;8.90;100.00
12775;BME280;6451;42.630;23.382;2023-11-22T06:48:03;93808.06;;;8.98;100.00
12775;BME280;6451;42.630;23.382;2023-11-22T06:50:30;93833.53;;;8.97;100.00
12775;BME280;6451;42.630;23.382;2023-11-22T06:52:59;93831.97;;;9.11;100.00
12775;BME280;6451;42.630;23.382;2023-11-22T06:55:25;93815.22;;;8.90;100.00
12775;BME280;6451;42.630;23.382;2023-11-22T06:57:54;93828.28;;;9.04;100.00
12775;BME280;6451;42.630;23.382;2023-11-22T07:00:21;93848.84;;;9.05;100.00
12775;BME280;6451;42.630;23.382;2023-11-22T07:02:49;93809.44;;;8.91;100.00
12775;BME280;6451;42.630;23.382;2023-11-22T07:05:16;93849.16;;;9.03;100.00
12775;BME280;6451;42.630;23.382;2023-11-22T07:07:44;93844.53;;;9.04;100.00
12775;BME280;6451;42.630;23.382;2023-11-22T07:10:12;93831.63;;;8.97;100.00
12775;BME280;6451;42.630;23.382;2023-11-22T07:12:39;93849.34;;;9.10;100.00
12775;BME280;6451;42.630;23.382;2023-11-22T07:15:10;93841.69;;;9.28;100.00
12775;BME280;6451;42.630;23.382;2023-11-22T07:17:37;93624.19;;;7.91;100.00
12775;BME280;6451;42.630;23.382;2023-11-22T07:20:05;93842.09;;;9.30;100.00
12775;BME280;6451;42.630;23.382;2023-11-22T07:22:36;93846.19;;;9.40;100.00
12775;BME280;6451;42.630;23.382;2023-11-22T07:25:03;93850.41;;;9.37;100.00
12775;BME280;6451;42.630;23.382;2023-11-22T07:27:32;93855.81;;;9.37;100.00
12775;BME280;6451;42.630;23.382;2023-11-22T07:29:59;93855.22;;;9.44;100.00
12775;BME280;6451;42.630;23.382;2023-11-22T07:32:28;93839.75;;;9.44;100.00
12775;BME280;6451;42.630;23.382;2023-11-22T07:34:55;93842.47;;;9.44;100.00
12775;BME280;6451;42.630;23.382;2023-11-22T07:37:22;93843.44;;;9.36;100.00
12775;BME280;6451;42.630;23.382;2023-11-22T07:39:49;93825.16;;;9.33;100.00
12775;BME280;6451;42.630;23.382;2023-11-22T07:42:16;93859.91;;;9.47;100.00
12775;BME280;6451;42.630;23.382;2023-11-22T07:44:44;93851.38;;;9.45;100.00
12775;BME280;6451;42.630;23.382;2023-11-22T07:47:11;93854.16;;;9.33;100.00
12775;BME280;6451;42.630;23.382;2023-11-22T07:49:40;93832.50;;;9.33;100.00
12775;BME280;6451;42.630;23.382;2023-11-22T07:52:07;93876.25;;;9.35;100.00
12775;BME280;6451;42.630;23.382;2023-11-22T07:54:39;93869.53;;;9.44;100.00
12775;BME280;6451;42.630;23.382;2023-11-22T07:57:06;93860.88;;;9.55;100.00
12775;BME280;6451;42.630;23.382;2023-11-22T07:59:34;93855.88;;;9.57;100.00
12775;BME280;6451;42.630;23.382;2023-11-22T08:02:05;93866.66;;;9.53;100.00
12775;BME280;6451;42.630;23.382;2023-11-22T08:04:36;93876.41;;;9.58;100.00
12775;BME280;6451;42.630;23.382;2023-11-22T08:07:05;93833.97;;;9.30;100.00
12775;BME280;6451;42.630;23.382;2023-11-22T08:09:32;93875.44;;;9.66;100.00
12775;BME280;6451;42.630;23.382;2023-11-22T08:11:59;93873.22;;;9.87;100.00
12775;BME280;6451;42.630;23.382;2023-11-22T08:14:28;93848.63;;;9.61;100.00
12775;BME280;6451;42.630;23.382;2023-11-22T08:16:56;93877.88;;;9.87;100.00
12775;BME280;6451;42.630;23.382;2023-11-22T08:19:25;93861.91;;;9.66;100.00
12775;BME280;6451;42.630;23.382;2023-11-22T08:21:53;93886.69;;;9.99;100.00
12775;BME280;6451;42.630;23.382;2023-11-22T08:24:21;93887.34;;;10.12;100.00
12775;BME280;6451;42.630;23.382;2023-11-22T08:26:49;93895.28;;;10.21;100.00
12775;BME280;6451;42.630;23.382;2023-11-22T08:29:16;93907.19;;;10.16;100.00
12775;BME280;6451;42.630;23.382;2023-11-22T08:31:44;93871.41;;;9.91;100.00
12775;BME280;6451;42.630;23.382;2023-11-22T08:34:11;93909.88;;;10.32;100.00
12775;BME280;6451;42.630;23.382;2023-11-22T08:36:38;93889.78;;;10.17;100.00
12775;BME280;6451;42.630;23.382;2023-11-22T08:39:05;93862.28;;;9.99;100.00
12775;BME280;6451;42.630;23.382;2023-11-22T08:41:34;93870.56;;;10.22;100.00
12775;BME280;6451;42.630;23.382;2023-11-22T08:44:01;93868.69;;;10.26;100.00
12775;BME280;6451;42.630;23.382;2023-11-22T08:46:29;93915.53;;;10.62;100.00
12775;BME280;6451;42.630;23.382;2023-11-22T08:48:56;93913.75;;;10.50;100.00
12775;BME280;6451;42.630;23.382;2023-11-22T08:51:23;93882.69;;;10.28;100.00
12775;BME280;6451;42.630;23.382;2023-11-22T08:53:51;93912.59;;;10.32;100.00
12775;BME280;6451;42.630;23.382;2023-11-22T08:56:18;93887.97;;;10.41;100.00
12775;BME280;6451;42.630;23.382;2023-11-22T08:58:47;93893.69;;;10.36;100.00
12775;BME280;6451;42.630;23.382;2023-11-22T09:01:14;93898.69;;;10.18;100.00
12775;BME280;6451;42.630;23.382;2023-11-22T09:03:41;93914.97;;;10.53;100.00
12775;BME280;6451;42.630;23.382;2023-11-22T09:06:12;93880.50;;;10.53;100.00
12775;BME280;6451;42.630;23.382;2023-11-22T09:08:39;93917.34;;;10.74;100.00
12775;BME280;6451;42.630;23.382;2023-11-22T09:11:06;93922.91;;;10.81;100.00
12775;BME280;6451;42.630;23.382;2023-11-22T09:13:34;93920.25;;;10.84;100.00
12775;BME280;6451;42.630;23.382;2023-11-22T09:16:03;93917.19;;;11.05;100.00
12775;BME280;6451;42.630;23.382;2023-11-22T09:18:30;93921.75;;;11.01;100.00
12775;BME280;6451;42.630;23.382;2023-11-22T09:20:58;93930.59;;;11.18;100.00
12775;BME280;6451;42.630;23.382;2023-11-22T09:23:25;93910.44;;;11.19;100.00
12775;BME280;6451;42.630;23.382;2023-11-22T09:25:53;93927.41;;;10.93;100.00
12775;BME280;6451;42.630;23.382;2023-11-22T09:28:20;93934.44;;;11.17;100.00
12775;BME280;6451;42.630;23.382;2023-11-22T09:30:48;93939.25;;;10.84;100.00
12775;BME280;6451;42.630;23.382;2023-11-22T09:33:17;93916.34;;;10.63;100.00
12775;BME280;6451;42.630;23.382;2023-11-22T09:35:47;93930.47;;;10.52;100.00
12775;BME280;6451;42.630;23.382;2023-11-22T09:38:16;93924.31;;;10.36;100.00
12775;BME280;6451;42.630;23.382;2023-11-22T09:40:44;93933.03;;;10.45;100.00
12775;BME280;6451;42.630;23.382;2023-11-22T09:43:12;93920.03;;;10.19;100.00
12775;BME280;6451;42.630;23.382;2023-11-22T09:45:43;93765.25;;;9.19;100.00
12775;BME280;6451;42.630;23.382;2023-11-22T09:48:14;93935.81;;;10.49;100.00
12775;BME280;6451;42.630;23.382;2023-11-22T09:50:50;93820.16;;;9.67;100.00
12775;BME280;6451;42.630;23.382;2023-11-22T09:53:28;93935.59;;;10.57;100.00
12775;BME280;6451;42.630;23.382;2023-11-22T09:55:59;93941.31;;;10.72;100.00
12775;BME280;6451;42.630;23.382;2023-11-22T09:58:30;93941.75;;;11.12;100.00
12775;BME280;6451;42.630;23.382;2023-11-22T10:00:59;93931.03;;;11.00;100.00
12775;BME280;6451;42.630;23.382;2023-11-22T10:03:28;93934.22;;;11.25;100.00
12775;BME280;6451;42.630;23.382;2023-11-22T10:05:57;93912.31;;;10.95;100.00
12775;BME280;6451;42.630;23.382;2023-11-22T10:08:25;93948.44;;;11.19;100.00
12775;BME280;6451;42.630;23.382;2023-11-22T10:10:59;93899.19;;;10.97;100.00
12775;BME280;6451;42.630;23.382;2023-11-22T10:13:33;93944.63;;;11.20;100.00
12775;BME280;6451;42.630;23.382;2023-11-22T10:16:09;93928.38;;;11.04;100.00
12775;BME280;6451;42.630;23.382;2023-11-22T10:18:39;93865.56;;;10.63;100.00
12775;BME280;6451;42.630;23.382;2023-11-22T10:21:19;93921.38;;;11.03;100.00
12775;BME280;6451;42.630;23.382;2023-11-22T10:23:48;93910.84;;;10.98;100.00
12775;BME280;6451;42.630;23.382;2023-11-22T10:26:17;93933.47;;;11.05;100.00
12775;BME280;6451;42.630;23.382;2023-11-22T10:28:45;93937.16;;;11.17;100.00
12775;BME280;6451;42.630;23.382;2023-11-22T10:31:16;93933.28;;;11.37;100.00
12775;BME280;6451;42.630;23.382;2023-11-22T10:33:44;93921.97;;;11.12;100.00
12775;BME280;6451;42.630;23.382;2023-11-22T10:36:14;93925.47;;;10.93;100.00
12775;BME280;6451;42.630;23.382;2023-11-22T10:38:45;93756.84;;;9.94;100.00
12775;BME280;6451;42.630;23.382;2023-11-22T10:41:13;93908.88;;;11.18;100.00
12775;BME280;6451;42.630;23.382;2023-11-22T10:43:44;93669.66;;;9.69;100.00
12775;BME280;6451;42.630;23.382;2023-11-22T10:46:13;93941.81;;;11.35;100.00
12775;BME280;6451;42.630;23.382;2023-11-22T10:48:45;93951.41;;;11.52;100.00
12775;BME280;6451;42.630;23.382;2023-11-22T10:51:16;93819.59;;;10.70;100.00
12775;BME280;6451;42.630;23.382;2023-11-22T10:53:51;93940.53;;;11.10;100.00
12775;BME280;6451;42.630;23.382;2023-11-22T10:56:20;93928.31;;;11.20;100.00
12775;BME280;6451;42.630;23.382;2023-11-22T10:58:49;93923.84;;;11.31;100.00
12775;BME280;6451;42.630;23.382;2023-11-22T11:01:20;93932.16;;;11.19;100.00
12775;BME280;6451;42.630;23.382;2023-11-22T11:03:55;93918.72;;;11.26;100.00
12775;BME280;6451;42.630;23.382;2023-11-22T11:06:26;93919.06;;;11.24;100.00
12775;BME280;6451;42.630;23.382;2023-11-22T11:09:00;93895.88;;;10.88;100.00
12775;BME280;6451;42.630;23.382;2023-11-22T11:11:31;93927.97;;;11.44;100.00
12775;BME280;6451;42.630;23.382;2023-11-22T11:14:00;93940.13;;;11.50;100.00
12775;BME280;6451;42.630;23.382;2023-11-22T11:16:30;93884.75;;;10.93;100.00
12775;BME280;6451;42.630;23.382;2023-11-22T11:19:00;93902.84;;;11.28;100.00
12775;BME280;6451;42.630;23.382;2023-11-22T11:21:28;93923.06;;;11.30;100.00
12775;BME280;6451;42.630;23.382;2023-11-22T11:24:00;93934.88;;;11.19;100.00
12775;BME280;6451;42.630;23.382;2023-11-22T11:26:32;93736.31;;;9.93;100.00
12775;BME280;6451;42.630;23.382;2023-11-22T11:29:03;93893.63;;;10.90;100.00
12775;BME280;6451;42.630;23.382;2023-11-22T11:31:32;93909.50;;;11.11;100.00
12775;BME280;6451;42.630;23.382;2023-11-22T11:34:07;93762.66;;;10.12;100.00
12775;BME280;6451;42.630;23.382;2023-11-22T11:36:40;93892.97;;;10.97;100.00
12775;BME280;6451;42.630;23.382;2023-11-22T11:39:16;93928.38;;;11.23;100.00
12775;BME280;6451;42.630;23.382;2023-11-22T11:42:10;93932.88;;;11.35;100.00
12775;BME280;6451;42.630;23.382;2023-11-22T11:44:51;93914.69;;;11.39;100.00
12775;BME280;6451;42.630;23.382;2023-11-22T11:47:18;93942.84;;;11.50;100.00
12775;BME280;6451;42.630;23.382;2023-11-22T11:49:45;93924.72;;;11.58;100.00
12775;BME280;6451;42.630;23.382;2023-11-22T11:52:15;93944.97;;;11.83;100.00
12775;BME280;6451;42.630;23.382;2023-11-22T11:54:45;93939.28;;;11.92;100.00
12775;BME280;6451;42.630;23.382;2023-11-22T11:57:12;93939.69;;;11.94;100.00
12775;BME280;6451;42.630;23.382;2023-11-22T11:59:39;93896.34;;;11.55;100.00
12775;BME280;6451;42.630;23.382;2023-11-22T12:02:06;93884.19;;;11.49;100.00
12775;BME280;6451;42.630;23.382;2023-11-22T12:04:33;93937.88;;;11.79;100.00
12775;BME280;6451;42.630;23.382;2023-11-22T12:07:00;93942.97;;;11.80;100.00
12775;BME280;6451;42.630;23.382;2023-11-22T12:09:27;93947.19;;;11.78;100.00
12775;BME280;6451;42.630;23.382;2023-11-22T12:11:59;93953.13;;;12.06;100.00
12775;BME280;6451;42.630;23.382;2023-11-22T12:17:42;93967.75;;;11.98;100.00
12775;BME280;6451;42.630;23.382;2023-11-22T12:20:14;93961.34;;;11.87;100.00
12775;BME280;6451;42.630;23.382;2023-11-22T12:22:43;93940.06;;;11.92;100.00
12775;BME280;6451;42.630;23.382;2023-11-22T12:25:11;93930.22;;;11.84;100.00
12775;BME280;6451;42.630;23.382;2023-11-22T12:27:41;93898.38;;;11.39;100.00
12775;BME280;6451;42.630;23.382;2023-11-22T12:30:09;93970.03;;;11.96;100.00
12775;BME280;6451;42.630;23.382;2023-11-22T12:32:39;93973.31;;;12.05;100.00
12775;BME280;6451;42.630;23.382;2023-11-22T12:35:08;93957.03;;;12.09;100.00
12775;BME280;6451;42.630;23.382;2023-11-22T12:37:37;93967.25;;;12.42;100.00
12775;BME280;6451;42.630;23.382;2023-11-22T12:40:09;93958.78;;;12.20;100.00
12775;BME280;6451;42.630;23.382;2023-11-22T12:42:47;93951.69;;;12.16;100.00
12775;BME280;6451;42.630;23.382;2023-11-22T12:45:19;93960.53;;;12.09;100.00
12775;BME280;6451;42.630;23.382;2023-11-22T12:47:47;93923.59;;;11.82;100.00
12775;BME280;6451;42.630;23.382;2023-11-22T12:50:33;93974.75;;;11.99;100.00
12775;BME280;6451;42.630;23.382;2023-11-22T12:53:08;93993.06;;;12.02;100.00
12775;BME280;6451;42.630;23.382;2023-11-22T12:55:37;93980.84;;;11.92;100.00
12775;BME280;6451;42.630;23.382;2023-11-22T12:58:06;93980.31;;;12.06;100.00
12775;BME280;6451;42.630;23.382;2023-11-22T13:00:33;93984.09;;;12.02;100.00
12775;BME280;6451;42.630;23.382;2023-11-22T13:03:01;94009.97;;;12.15;100.00
12775;BME280;6451;42.630;23.382;2023-11-22T13:05:28;94017.28;;;11.88;100.00
12775;BME280;6451;42.630;23.382;2023-11-22T13:07:55;93957.13;;;11.47;100.00